createdAt,value
2023-01-07T00:00:02.127Z,13.50
2023-01-07T00:02:39.455Z,12.73
2023-01-07T00:05:07.490Z,12.77
2023-01-07T00:07:35.039Z,12.18
2023-01-07T00:10:02.493Z,12.27
2023-01-07T00:12:29.856Z,11.75
2023-01-07T00:14:57.303Z,11.18
2023-01-07T00:17:24.700Z,10.55
2023-01-07T00:19:52.085Z,10.73
2023-01-07T00:22:19.728Z,9.50
2023-01-07T00:24:47.166Z,8.60
2023-01-07T00:27:14.656Z,8.68
2023-01-07T00:29:42.085Z,9.57
2023-01-07T00:32:09.544Z,8.95
2023-01-07T00:34:39.083Z,7.88
2023-01-07T00:37:25.200Z,7.65
2023-01-07T00:39:52.615Z,7.30
2023-01-07T00:42:38.710Z,6.80
2023-01-07T00:45:06.380Z,6.85
2023-01-07T00:47:33.731Z,7.25
2023-01-07T00:50:01.129Z,6.63
2023-01-07T00:52:28.685Z,6.78
2023-01-07T00:54:56.098Z,6.60
2023-01-07T00:57:23.575Z,7.13
2023-01-07T00:59:51.052Z,6.70
2023-01-07T01:02:18.611Z,6.45
2023-01-07T01:04:46.015Z,6.72
2023-01-07T01:07:13.411Z,7.07
2023-01-07T01:09:40.800Z,7.20
2023-01-07T01:12:08.293Z,6.80
2023-01-07T01:14:35.659Z,6.95
2023-01-07T01:17:03.145Z,7.10
2023-01-07T01:19:30.560Z,6.45
2023-01-07T01:21:58.752Z,7.28
2023-01-07T01:24:26.101Z,7.60
2023-01-07T01:26:53.497Z,9.02
2023-01-07T01:29:20.905Z,8.40
2023-01-07T01:31:48.728Z,7.05
2023-01-07T01:34:16.152Z,7.57
2023-01-07T01:36:43.691Z,6.60
2023-01-07T01:39:11.152Z,7.15
2023-01-07T01:41:39.619Z,6.68
2023-01-07T01:44:26.976Z,6.93
2023-01-07T01:46:54.584Z,6.90
2023-01-07T01:49:37.548Z,6.88
2023-01-07T01:52:10.822Z,7.28
2023-01-07T01:54:39.238Z,6.70
2023-01-07T01:57:07.996Z,6.80
2023-01-07T01:59:38.744Z,6.15
2023-01-07T02:02:10.102Z,6.68
2023-01-07T02:04:37.795Z,6.70
2023-01-07T02:07:06.859Z,6.57
2023-01-07T02:09:37.685Z,6.30
2023-01-07T02:12:19.411Z,6.15
2023-01-07T02:14:55.684Z,6.53
2023-01-07T02:17:46.369Z,6.32
2023-01-07T02:20:32.907Z,6.20
2023-01-07T02:23:12.540Z,6.53
2023-01-07T02:25:42.108Z,6.75
2023-01-07T02:28:09.545Z,6.22
2023-01-07T02:30:43.182Z,6.35
2023-01-07T02:33:26.648Z,6.25
2023-01-07T02:35:54.575Z,7.13
2023-01-07T02:38:22.089Z,6.60
2023-01-07T02:40:55.703Z,6.80
2023-01-07T02:43:43.323Z,6.80
2023-01-07T02:46:14.028Z,6.43
2023-01-07T02:48:42.378Z,6.47
2023-01-07T02:51:09.829Z,6.38
2023-01-07T02:53:39.728Z,5.90
2023-01-07T02:56:19.838Z,6.80
2023-01-07T02:58:47.378Z,6.13
2023-01-07T03:01:14.958Z,5.50
2023-01-07T03:03:51.882Z,6.28
2023-01-07T03:06:25.481Z,6.28
2023-01-07T03:09:17.669Z,6.40
2023-01-07T03:12:17.594Z,6.13
2023-01-07T03:14:48.986Z,6.57
2023-01-07T03:17:19.912Z,6.35
2023-01-07T03:19:50.639Z,5.90
2023-01-07T03:22:19.416Z,6.78
2023-01-07T03:24:48.430Z,6.75
2023-01-07T03:27:17.256Z,6.40
2023-01-07T03:29:44.781Z,6.03
2023-01-07T03:32:17.099Z,6.45
2023-01-07T03:34:45.485Z,6.90
2023-01-07T03:37:14.687Z,6.95
2023-01-07T03:39:44.934Z,6.05
2023-01-07T03:42:31.983Z,7.03
2023-01-07T03:45:00.633Z,6.65
2023-01-07T03:47:31.166Z,6.30
2023-01-07T03:49:58.638Z,7.07
2023-01-07T03:52:26.061Z,6.95
2023-01-07T03:54:53.557Z,6.35
2023-01-07T03:57:21.112Z,6.80
2023-01-07T03:59:48.532Z,6.93
2023-01-07T04:02:16.243Z,6.30
2023-01-07T04:04:44.049Z,6.07
2023-01-07T04:07:11.786Z,6.85
2023-01-07T04:09:39.223Z,6.88
2023-01-07T04:12:07.775Z,6.72
2023-01-07T04:14:35.896Z,6.45
2023-01-07T04:17:03.277Z,6.88
2023-01-07T04:19:30.696Z,6.38
2023-01-07T04:21:59.302Z,6.75
2023-01-07T04:24:26.745Z,6.78
2023-01-07T04:26:54.453Z,7.10
2023-01-07T04:29:22.176Z,6.60
2023-01-07T04:31:50.340Z,6.70
2023-01-07T04:34:18.001Z,6.78
2023-01-07T04:36:45.424Z,6.60
2023-01-07T04:39:13.384Z,7.32
2023-01-07T04:41:40.973Z,6.97
2023-01-07T04:44:09.028Z,6.28
2023-01-07T04:46:36.567Z,6.82
2023-01-07T04:49:04.779Z,6.95
2023-01-07T04:51:32.431Z,6.63
2023-01-07T04:54:00.442Z,7.05
2023-01-07T04:56:28.038Z,7.75
2023-01-07T04:58:55.805Z,6.97
2023-01-07T05:01:25.586Z,7.20
2023-01-07T05:03:53.141Z,7.32
2023-01-07T05:06:20.858Z,7.82
2023-01-07T05:08:48.763Z,8.65
2023-01-07T05:11:21.508Z,7.78
2023-01-07T05:16:19.993Z,6.88
2023-01-07T05:18:48.469Z,6.97
2023-01-07T05:21:15.986Z,7.22
2023-01-07T05:23:44.418Z,6.90
2023-01-07T05:26:12.220Z,6.70
2023-01-07T05:28:40.260Z,7.35
2023-01-07T05:31:07.702Z,7.43
2023-01-07T05:33:35.506Z,7.25
2023-01-07T05:36:03.526Z,9.68
2023-01-07T05:38:30.992Z,9.75
2023-01-07T05:40:58.390Z,10.10
2023-01-07T05:43:27.561Z,9.48
2023-01-07T05:45:56.281Z,8.90
2023-01-07T05:48:23.992Z,8.80
2023-01-07T05:50:51.537Z,9.60
2023-01-07T05:53:19.111Z,9.43
2023-01-07T05:55:46.516Z,11.65
2023-01-07T05:58:14.036Z,10.98
2023-01-07T06:00:41.563Z,11.07
2023-01-07T06:03:09.507Z,12.40
2023-01-07T06:05:37.191Z,11.43
2023-01-07T06:08:04.710Z,11.10
2023-01-07T06:10:32.437Z,24.63
2023-01-07T06:12:59.840Z,16.92
2023-01-07T06:15:27.367Z,11.95
2023-01-07T06:17:54.781Z,12.10
2023-01-07T06:20:22.785Z,12.05
2023-01-07T06:22:50.358Z,15.45
2023-01-07T06:25:18.609Z,16.25
2023-01-07T06:27:46.061Z,15.93
2023-01-07T06:30:13.580Z,14.63
2023-01-07T06:32:41.960Z,14.70
2023-01-07T06:35:10.580Z,17.33
2023-01-07T06:37:38.522Z,18.55
2023-01-07T06:40:06.362Z,18.33
2023-01-07T06:42:33.845Z,18.60
2023-01-07T06:45:01.441Z,23.73
2023-01-07T06:47:28.895Z,13.38
2023-01-07T06:49:56.420Z,19.77
2023-01-07T06:52:23.881Z,19.73
2023-01-07T06:54:51.341Z,14.40
2023-01-07T06:57:18.793Z,12.75
2023-01-07T06:59:46.285Z,12.95
2023-01-07T07:02:21.422Z,13.85
2023-01-07T07:04:49.201Z,14.32
2023-01-07T07:07:17.171Z,11.52
2023-01-07T07:09:44.647Z,11.18
2023-01-07T07:12:12.456Z,12.15
2023-01-07T07:14:40.939Z,12.52
2023-01-07T07:17:08.357Z,14.52
2023-01-07T07:19:35.748Z,16.10
2023-01-07T07:22:04.705Z,15.02
2023-01-07T07:24:32.169Z,19.52
2023-01-07T07:27:00.263Z,19.60
2023-01-07T07:29:28.611Z,18.63
2023-01-07T07:31:56.023Z,19.42
2023-01-07T07:34:23.442Z,21.25
2023-01-07T07:36:50.946Z,22.00
2023-01-07T07:39:18.460Z,20.05
2023-01-07T07:41:45.796Z,19.77
2023-01-07T07:44:17.112Z,22.90
2023-01-07T07:46:44.637Z,20.23
2023-01-07T07:49:12.460Z,21.05
2023-01-07T07:51:39.941Z,18.75
2023-01-07T07:54:07.277Z,19.85
2023-01-07T07:56:34.736Z,19.80
2023-01-07T07:59:02.588Z,21.48
2023-01-07T08:01:30.217Z,19.67
2023-01-07T08:03:57.716Z,17.40
2023-01-07T08:06:25.359Z,17.42
2023-01-07T08:08:53.000Z,15.90
2023-01-07T08:11:20.541Z,15.70
2023-01-07T08:13:48.175Z,15.10
2023-01-07T08:16:17.192Z,14.93
2023-01-07T08:18:44.552Z,15.27
2023-01-07T08:21:12.468Z,15.63
2023-01-07T08:23:39.885Z,17.70
2023-01-07T08:26:07.424Z,18.92
2023-01-07T08:28:35.378Z,16.77
2023-01-07T08:31:04.622Z,15.63
2023-01-07T08:33:37.471Z,15.27
2023-01-07T08:36:09.317Z,15.65
2023-01-07T08:38:39.647Z,13.73
2023-01-07T08:41:06.979Z,13.95
2023-01-07T08:43:35.460Z,13.77
2023-01-07T08:46:02.868Z,14.98
2023-01-07T08:48:30.337Z,13.98
2023-01-07T08:50:58.721Z,14.57
2023-01-07T08:53:26.894Z,14.32
2023-01-07T08:55:54.264Z,12.73
2023-01-07T08:58:21.682Z,12.27
2023-01-07T09:00:49.175Z,12.90
2023-01-07T09:03:18.565Z,13.10
2023-01-07T09:05:49.430Z,12.07
2023-01-07T09:08:17.585Z,11.80
2023-01-07T09:10:45.015Z,12.57
2023-01-07T09:13:12.747Z,13.30
2023-01-07T09:15:40.117Z,11.45
2023-01-07T09:18:07.671Z,13.35
2023-01-07T09:20:35.138Z,11.80
2023-01-07T09:23:02.838Z,12.27
2023-01-07T09:25:30.279Z,11.20
2023-01-07T09:27:57.781Z,11.98
2023-01-07T09:30:25.223Z,11.63
2023-01-07T09:32:52.730Z,11.63
2023-01-07T09:35:20.226Z,12.70
2023-01-07T09:37:47.637Z,13.18
2023-01-07T09:40:24.115Z,13.75
2023-01-07T09:43:08.946Z,14.02
2023-01-07T09:45:45.098Z,13.10
2023-01-07T09:48:24.366Z,12.80
2023-01-07T09:50:54.914Z,12.45
2023-01-07T09:53:32.639Z,11.05
2023-01-07T09:56:11.689Z,11.52
2023-01-07T09:58:41.848Z,11.02
2023-01-07T10:01:21.393Z,11.10
2023-01-07T10:03:48.999Z,11.02
2023-01-07T10:06:16.466Z,11.05
2023-01-07T10:09:04.269Z,11.40
2023-01-07T10:11:55.548Z,11.95
2023-01-07T10:14:42.141Z,11.85
2023-01-07T10:17:21.968Z,12.25
2023-01-07T10:19:52.578Z,12.90
2023-01-07T10:22:32.776Z,12.00
2023-01-07T10:25:02.466Z,11.60
2023-01-07T10:27:32.186Z,11.93
2023-01-07T10:30:02.720Z,13.00
2023-01-07T10:32:36.507Z,11.57
2023-01-07T10:35:04.976Z,12.88
2023-01-07T10:37:32.358Z,11.23
2023-01-07T10:40:06.161Z,12.30
2023-01-07T10:42:38.019Z,13.05
2023-01-07T10:45:05.507Z,13.77
2023-01-07T10:47:39.435Z,44.05
2023-01-07T10:50:25.904Z,28.13
2023-01-07T10:52:56.274Z,13.23
2023-01-07T10:55:56.084Z,13.85
2023-01-07T10:58:23.823Z,14.73
2023-01-07T11:00:51.294Z,17.33
2023-01-07T11:03:25.321Z,12.45
2023-01-07T11:05:55.794Z,13.27
2023-01-07T11:08:42.941Z,11.40
2023-01-07T11:11:16.482Z,8.48
2023-01-07T11:13:45.047Z,9.10
2023-01-07T11:16:19.572Z,9.57
2023-01-07T11:18:55.945Z,9.45
2023-01-07T11:21:43.867Z,7.80
2023-01-07T11:24:29.174Z,8.40
2023-01-07T11:29:26.640Z,8.57
2023-01-07T11:31:56.218Z,8.18
2023-01-07T11:34:43.789Z,8.85
2023-01-07T11:37:11.833Z,8.93
2023-01-07T11:39:39.653Z,9.07
2023-01-07T11:42:36.810Z,9.18
2023-01-07T11:45:15.509Z,10.18
2023-01-07T11:47:52.607Z,10.32
2023-01-07T11:50:24.798Z,9.75
2023-01-07T11:53:03.541Z,9.57
2023-01-07T11:55:31.254Z,10.65
2023-01-07T11:58:29.440Z,8.57
2023-01-07T12:00:47.482Z,9.00
2023-01-07T12:03:15.043Z,9.73
2023-01-07T12:05:45.538Z,9.88
2023-01-07T12:08:21.821Z,8.50
2023-01-07T12:10:58.317Z,8.52
2023-01-07T12:13:28.042Z,8.80
2023-01-07T12:16:03.661Z,8.60
2023-01-07T12:18:54.510Z,9.32
2023-01-07T12:21:22.001Z,9.70
2023-01-07T12:23:52.335Z,9.10
2023-01-07T12:26:30.163Z,9.15
2023-01-07T12:29:06.596Z,9.00
2023-01-07T12:31:34.130Z,12.50
2023-01-07T12:34:10.703Z,9.13
2023-01-07T12:36:47.114Z,8.85
2023-01-07T12:39:23.107Z,10.38
2023-01-07T12:42:03.928Z,10.07
2023-01-07T12:44:31.987Z,10.35
2023-01-07T12:47:32.180Z,10.65
2023-01-07T12:49:55.784Z,9.73
2023-01-07T12:52:36.719Z,13.07
2023-01-07T12:55:24.385Z,11.98
2023-01-07T12:58:12.074Z,10.35
2023-01-07T13:00:51.154Z,9.38
2023-01-07T13:03:21.882Z,9.15
2023-01-07T13:05:57.353Z,8.77
2023-01-07T13:08:43.422Z,8.02
2023-01-07T13:11:10.870Z,8.57
2023-01-07T13:13:44.646Z,10.57
2023-01-07T13:16:12.427Z,8.77
2023-01-07T13:18:39.884Z,9.07
2023-01-07T13:21:10.650Z,8.93
2023-01-07T13:23:50.057Z,9.32
2023-01-07T13:26:36.909Z,8.45
2023-01-07T13:29:10.194Z,9.13
2023-01-07T13:31:56.499Z,8.70
2023-01-07T13:34:33.609Z,8.75
2023-01-07T13:37:16.229Z,9.73
2023-01-07T13:39:46.516Z,9.32
2023-01-07T13:42:23.274Z,9.13
2023-01-07T13:44:50.752Z,10.05
2023-01-07T13:47:19.704Z,9.43
2023-01-07T13:49:56.416Z,10.00
2023-01-07T13:52:27.588Z,9.07
2023-01-07T13:54:56.377Z,9.88
2023-01-07T13:57:32.746Z,10.10
2023-01-07T14:00:01.927Z,10.15
2023-01-07T14:02:58.545Z,10.63
2023-01-07T14:05:29.896Z,8.93
2023-01-07T14:07:59.403Z,9.75
2023-01-07T14:10:33.913Z,10.48
2023-01-07T14:13:20.508Z,11.32
2023-01-07T14:15:50.845Z,10.90
2023-01-07T14:18:18.341Z,12.73
2023-01-07T14:20:49.543Z,13.88
2023-01-07T14:23:33.110Z,10.68
2023-01-07T14:26:15.863Z,10.40
2023-01-07T14:28:43.393Z,12.10
2023-01-07T14:31:21.824Z,12.68
2023-01-07T14:33:51.644Z,12.07
2023-01-07T14:36:19.040Z,11.00
2023-01-07T14:38:48.001Z,12.30
2023-01-07T14:41:16.832Z,20.13
2023-01-07T14:43:45.627Z,17.00
2023-01-07T14:46:22.200Z,16.42
2023-01-07T14:49:02.889Z,15.82
2023-01-07T14:51:33.235Z,14.82
2023-01-07T14:54:07.964Z,14.77
2023-01-07T14:56:35.530Z,14.60
2023-01-07T14:59:23.134Z,17.80
2023-01-07T15:02:09.374Z,17.77
2023-01-07T15:04:42.937Z,17.92
2023-01-07T15:07:16.439Z,21.58
2023-01-07T15:10:04.557Z,26.58
2023-01-07T15:12:52.893Z,30.63
2023-01-07T15:15:42.219Z,32.65
2023-01-07T15:18:10.449Z,22.25
2023-01-07T15:20:43.994Z,19.85
2023-01-07T15:23:17.113Z,20.83
2023-01-07T15:25:56.541Z,19.92
2023-01-07T15:28:35.534Z,20.08
2023-01-07T15:31:09.104Z,24.80
2023-01-07T15:33:57.386Z,27.50
2023-01-07T15:36:25.089Z,31.08
2023-01-07T15:38:56.787Z,33.08
2023-01-07T15:41:35.582Z,30.27
2023-01-07T15:44:04.525Z,29.27
2023-01-07T15:46:32.919Z,30.42
2023-01-07T15:49:11.642Z,32.70
2023-01-07T15:51:41.430Z,31.42
2023-01-07T15:54:25.128Z,27.60
2023-01-07T15:56:54.185Z,26.33
2023-01-07T15:59:25.936Z,26.50
2023-01-07T16:01:55.601Z,26.00
2023-01-07T16:04:30.036Z,26.65
2023-01-07T16:06:58.791Z,30.73
2023-01-07T16:09:26.851Z,31.92
2023-01-07T16:11:54.698Z,28.40
2023-01-07T16:14:24.533Z,21.58
2023-01-07T16:17:05.865Z,24.85
2023-01-07T16:19:33.276Z,19.35
2023-01-07T16:22:01.056Z,28.55
2023-01-07T16:24:28.568Z,74.60
2023-01-07T16:27:00.627Z,79.70
2023-01-07T16:29:30.299Z,61.70
2023-01-07T16:31:57.841Z,78.60
2023-01-07T16:34:25.227Z,69.57
2023-01-07T16:37:03.741Z,84.35
2023-01-07T16:39:32.955Z,88.85
2023-01-07T16:42:19.278Z,135.60
2023-01-07T16:44:49.570Z,190.80
2023-01-07T16:47:22.349Z,202.15
2023-01-07T16:49:50.702Z,219.75
2023-01-07T16:52:18.981Z,116.57
2023-01-07T16:54:50.053Z,102.22
2023-01-07T16:57:23.702Z,105.35
2023-01-07T16:59:53.876Z,94.72
2023-01-07T17:02:28.269Z,84.88
2023-01-07T17:04:56.992Z,96.07
2023-01-07T17:07:27.826Z,96.25
2023-01-07T17:09:56.224Z,94.40
2023-01-07T17:12:27.681Z,94.70
2023-01-07T17:14:55.265Z,95.28
2023-01-07T17:17:26.173Z,91.60
2023-01-07T17:19:53.556Z,87.57
2023-01-07T17:22:39.740Z,82.88
2023-01-07T17:25:09.929Z,78.63
2023-01-07T17:27:58.011Z,70.50
2023-01-07T17:30:28.449Z,73.00
2023-01-07T17:32:55.936Z,74.93
2023-01-07T17:35:24.871Z,67.15
2023-01-07T17:37:53.655Z,55.42
2023-01-07T17:40:21.560Z,67.57
2023-01-07T17:43:08.225Z,37.35
2023-01-07T17:45:35.821Z,37.17
2023-01-07T17:48:04.316Z,36.15
2023-01-07T17:50:36.524Z,40.75
2023-01-07T17:53:04.807Z,42.28
2023-01-07T17:55:32.746Z,40.25
2023-01-07T17:58:00.172Z,41.63
2023-01-07T18:00:28.588Z,42.15
2023-01-07T18:02:57.900Z,46.30
2023-01-07T18:05:26.615Z,47.25
2023-01-07T18:07:54.585Z,41.47
2023-01-07T18:10:27.166Z,51.08
2023-01-07T18:12:54.621Z,45.03
2023-01-07T18:15:22.054Z,39.53
2023-01-07T18:17:49.789Z,41.80
2023-01-07T18:20:17.491Z,44.03
2023-01-07T18:22:45.349Z,46.17
2023-01-07T18:25:15.775Z,47.97
2023-01-07T18:27:43.890Z,47.33
2023-01-07T18:30:13.537Z,50.97
2023-01-07T18:32:40.972Z,82.57
2023-01-07T18:35:08.444Z,80.32
2023-01-07T18:37:35.864Z,64.80
2023-01-07T18:40:03.702Z,54.78
2023-01-07T18:42:32.502Z,55.00
2023-01-07T18:44:59.948Z,59.85
2023-01-07T18:47:27.352Z,56.30
2023-01-07T18:49:54.837Z,60.60
2023-01-07T18:52:22.335Z,55.83
2023-01-07T18:54:49.768Z,57.70
2023-01-07T18:57:17.211Z,55.17
2023-01-07T18:59:45.042Z,58.97
2023-01-07T19:02:17.599Z,59.83
2023-01-07T19:04:45.044Z,59.15
2023-01-07T19:07:12.496Z,57.65
2023-01-07T19:09:39.981Z,73.90
2023-01-07T19:12:10.730Z,99.75
2023-01-07T19:14:39.606Z,98.95
2023-01-07T19:17:07.767Z,97.97
2023-01-07T19:19:47.545Z,88.32
2023-01-07T19:22:16.175Z,79.68
2023-01-07T19:24:43.728Z,75.22
2023-01-07T19:27:11.623Z,74.55
2023-01-07T19:29:39.001Z,77.65
2023-01-07T19:32:06.540Z,76.88
2023-01-07T19:34:33.925Z,89.88
2023-01-07T19:37:01.406Z,87.72
2023-01-07T19:39:28.836Z,88.18
2023-01-07T19:41:56.300Z,85.38
2023-01-07T19:44:23.789Z,87.47
2023-01-07T19:46:51.215Z,82.10
2023-01-07T19:49:18.591Z,80.57
2023-01-07T19:51:45.990Z,82.03
2023-01-07T19:54:17.821Z,84.18
2023-01-07T19:56:45.411Z,85.70
2023-01-07T19:59:13.020Z,83.35
2023-01-07T20:01:40.666Z,77.38
2023-01-07T20:04:08.892Z,74.10
2023-01-07T20:06:38.907Z,73.93
2023-01-07T20:09:10.829Z,74.05
2023-01-07T20:11:39.178Z,78.40
2023-01-07T20:14:07.745Z,76.15
2023-01-07T20:16:36.890Z,76.70
2023-01-07T20:19:05.332Z,84.00
2023-01-07T20:21:33.748Z,81.72
2023-01-07T20:24:01.108Z,79.47
2023-01-07T20:26:32.573Z,80.10
2023-01-07T20:29:00.641Z,80.20
2023-01-07T20:31:28.958Z,83.68
2023-01-07T20:33:57.682Z,87.28
2023-01-07T20:36:26.464Z,90.75
2023-01-07T20:38:53.953Z,94.53
2023-01-07T20:41:23.274Z,121.85
2023-01-07T20:43:52.297Z,100.55
2023-01-07T20:46:19.929Z,96.60
2023-01-07T20:48:47.628Z,96.15
2023-01-07T20:51:15.377Z,94.00
2023-01-07T20:53:44.375Z,92.50
2023-01-07T20:56:12.783Z,93.63
2023-01-07T20:58:40.264Z,94.28
2023-01-07T21:01:09.195Z,94.70
2023-01-07T21:03:36.790Z,89.18
2023-01-07T21:06:04.376Z,87.78
2023-01-07T21:08:32.558Z,88.90
2023-01-07T21:10:59.898Z,88.65
2023-01-07T21:13:27.456Z,85.65
2023-01-07T21:15:55.004Z,82.90
2023-01-07T21:18:22.403Z,77.45
2023-01-07T21:20:49.776Z,77.40
2023-01-07T21:23:17.212Z,75.50
2023-01-07T21:25:48.233Z,72.50
2023-01-07T21:28:15.874Z,64.82
2023-01-07T21:30:43.377Z,48.33
2023-01-07T21:33:10.854Z,41.42
2023-01-07T21:35:41.984Z,36.13
2023-01-07T21:38:09.410Z,29.77
2023-01-07T21:40:38.448Z,34.28
2023-01-07T21:43:05.926Z,32.60
2023-01-07T21:45:33.358Z,32.63
2023-01-07T21:48:00.772Z,27.50
2023-01-07T21:50:28.401Z,21.17
2023-01-07T21:52:55.818Z,22.17
2023-01-07T21:55:23.255Z,21.83
2023-01-07T21:57:50.690Z,22.20
2023-01-07T22:00:18.209Z,20.77
2023-01-07T22:02:45.677Z,20.45
2023-01-07T22:05:13.095Z,23.10
2023-01-07T22:07:40.544Z,23.90
2023-01-07T22:10:08.156Z,20.83
2023-01-07T22:12:35.597Z,21.02
2023-01-07T22:15:02.923Z,21.55
2023-01-07T22:17:30.429Z,21.40
2023-01-07T22:19:57.807Z,21.67
2023-01-07T22:22:25.287Z,21.83
2023-01-07T22:24:52.641Z,19.13
2023-01-07T22:27:20.123Z,19.88
2023-01-07T22:29:47.476Z,21.27
2023-01-07T22:32:14.881Z,21.92
2023-01-07T22:34:42.333Z,20.98
2023-01-07T22:37:17.687Z,21.45
2023-01-07T22:42:17.807Z,22.08
2023-01-07T22:44:51.349Z,21.80
2023-01-07T22:47:20.673Z,23.25
2023-01-07T22:49:49.099Z,23.85
2023-01-07T22:52:16.599Z,24.48
2023-01-07T22:54:44.099Z,25.35
2023-01-07T22:57:12.426Z,31.45
2023-01-07T22:59:39.804Z,32.60
2023-01-07T23:02:07.220Z,31.33
2023-01-07T23:04:34.771Z,28.63
2023-01-07T23:07:02.136Z,27.48
2023-01-07T23:09:29.592Z,24.48
2023-01-07T23:12:00.589Z,25.98
2023-01-07T23:14:30.203Z,25.42
2023-01-07T23:16:58.953Z,24.80
2023-01-07T23:19:26.396Z,26.50
2023-01-07T23:21:54.842Z,24.65
2023-01-07T23:24:23.003Z,25.88
2023-01-07T23:26:51.499Z,24.98
2023-01-07T23:29:19.266Z,23.58
2023-01-07T23:31:46.812Z,23.85
2023-01-07T23:34:15.135Z,25.90
2023-01-07T23:36:42.473Z,23.98
2023-01-07T23:39:09.961Z,22.50
2023-01-07T23:41:37.346Z,22.38
2023-01-07T23:44:04.910Z,23.45
2023-01-07T23:46:32.380Z,23.15
2023-01-07T23:48:59.782Z,22.30
2023-01-07T23:51:27.178Z,23.83
2023-01-07T23:53:54.551Z,23.13
2023-01-07T23:56:22.399Z,22.27
2023-01-07T23:58:50.010Z,21.50
